Time;durP1;ratioP1;P1;durP2;ratioP2;P2;SDS_P1;SDS_P2;PMS_P1;PMS_P2;Temp;Humidity;BMP_temperature;BMP_pressure;BME280_temperature;BME280_humidity;BME280_pressure;Samples;Min_cycle;Max_cycle;Signal;HPM_P1;HPM_P2
2021/03/23 00:00:32;;;;;;;10.88;3.40;;;;;;;4.59;74.07;102081.56;5034768;28;20091;-71
2021/03/23 00:03:07;;;;;;;6.60;3.03;;;;;;;4.55;74.40;102078.44;5034952;28;20487;-71
2021/03/23 00:05:32;;;;;;;6.22;3.20;;;;;;;4.55;74.88;102083.75;5033235;28;20025;-71
2021/03/23 00:07:58;;;;;;;8.85;3.63;;;;;;;4.55;76.09;102085.59;5035262;28;20040;-71
2021/03/23 00:10:27;;;;;;;9.32;3.60;;;;;;;4.55;77.03;102075.81;5036911;28;20029;-71
2021/03/23 00:12:53;;;;;;;9.23;3.80;;;;;;;4.58;77.46;102081.75;5033409;28;20032;-71
2021/03/23 00:15:19;;;;;;;10.23;3.60;;;;;;;4.62;76.88;102075.09;5042165;28;20029;-71
2021/03/23 00:17:45;;;;;;;11.27;4.43;;;;;;;4.50;79.26;102086.13;5039724;28;20025;-71
2021/03/23 00:20:13;;;;;;;10.35;4.13;;;;;;;4.49;80.25;102078.34;5029854;28;20025;-71
2021/03/23 00:22:39;;;;;;;9.25;3.42;;;;;;;4.52;80.01;102080.63;5038756;28;20044;-71
2021/03/23 00:25:07;;;;;;;10.93;3.95;;;;;;;4.50;80.13;102078.16;5032167;28;20033;-71
2021/03/23 00:27:33;;;;;;;9.70;3.88;;;;;;;4.46;81.23;102083.97;5036501;28;20070;-71
2021/03/23 00:29:58;;;;;;;9.43;4.40;;;;;;;4.47;81.33;102078.47;5034500;28;20036;-71
2021/03/23 00:32:24;;;;;;;11.75;4.55;;;;;;;4.48;81.05;102090.75;5033618;28;20025;-71
2021/03/23 00:34:49;;;;;;;8.75;4.05;;;;;;;4.46;82.12;102084.81;5035240;28;20041;-71
2021/03/23 00:37:16;;;;;;;10.63;4.43;;;;;;;4.43;82.13;102076.38;5034594;28;20610;-71
2021/03/23 00:39:42;;;;;;;10.20;4.35;;;;;;;4.46;82.52;102076.84;5039071;28;20499;-71
2021/03/23 00:42:07;;;;;;;12.43;4.60;;;;;;;4.42;83.21;102088.81;5040960;28;20085;-71
2021/03/23 00:44:34;;;;;;;11.40;4.30;;;;;;;4.53;82.60;102084.94;5036675;28;20037;-71
2021/03/23 00:47:00;;;;;;;10.27;4.60;;;;;;;4.51;82.60;102090.44;5038353;28;20480;-71
2021/03/23 00:49:25;;;;;;;10.65;4.97;;;;;;;4.48;83.07;102090.75;5033905;28;20074;-71
2021/03/23 00:51:53;;;;;;;11.73;5.13;;;;;;;4.48;83.47;102084.63;5037437;28;20032;-71
2021/03/23 00:54:19;;;;;;;13.80;4.80;;;;;;;4.54;83.23;102090.06;5034940;28;20029;-71
2021/03/23 00:56:44;;;;;;;9.73;4.53;;;;;;;4.55;83.23;102090.91;5032120;28;20038;-71
2021/03/23 00:59:10;;;;;;;11.98;4.40;;;;;;;4.53;83.49;102088.41;5035649;28;20025;-71
2021/03/23 01:01:35;;;;;;;7.40;3.60;;;;;;;4.58;83.25;102095.84;5033047;28;20144;-71
2021/03/23 01:04:01;;;;;;;9.75;5.00;;;;;;;4.55;83.65;102097.03;5031781;28;20025;-71
2021/03/23 01:06:26;;;;;;;12.23;4.53;;;;;;;4.58;83.82;102095.03;5030456;28;20522;-71
2021/03/23 01:08:52;;;;;;;11.85;4.53;;;;;;;4.54;84.42;102094.56;5034985;28;20043;-71
2021/03/23 01:11:17;;;;;;;12.65;4.80;;;;;;;4.46;85.41;102090.09;5036125;28;20032;-71
2021/03/23 01:13:43;;;;;;;14.48;5.15;;;;;;;4.42;85.78;102095.94;5033061;28;20065;-71
2021/03/23 01:16:08;;;;;;;13.30;5.15;;;;;;;4.37;87.35;102091.16;5039663;28;20116;-71
2021/03/23 01:18:35;;;;;;;15.50;5.53;;;;;;;4.25;88.34;102089.91;5039280;28;20034;-71
2021/03/23 01:21:01;;;;;;;16.15;5.60;;;;;;;4.28;88.07;102094.03;5041451;28;20396;-71
2021/03/23 01:23:26;;;;;;;14.60;5.78;;;;;;;4.29;88.31;102101.81;5032814;28;20028;-71
2021/03/23 01:25:52;;;;;;;14.85;5.53;;;;;;;4.22;89.25;102095.56;5035813;28;20033;-71
2021/03/23 01:28:17;;;;;;;12.80;5.40;;;;;;;4.22;89.36;102096.38;5036966;28;20487;-71
2021/03/23 01:30:43;;;;;;;13.15;5.38;;;;;;;4.23;89.72;102097.19;5034917;28;20032;-71
2021/03/23 01:33:08;;;;;;;14.20;5.85;;;;;;;4.26;89.42;102096.84;5033153;28;20033;-71
2021/03/23 01:35:34;;;;;;;11.25;5.93;;;;;;;4.25;89.96;102100.50;5038147;28;20029;-71
2021/03/23 01:38:00;;;;;;;11.40;4.43;;;;;;;4.22;89.84;102101.69;5030691;28;20059;-71
2021/03/23 01:40:27;;;;;;;18.20;5.53;;;;;;;4.22;90.22;102099.03;5036526;28;20044;-71
2021/03/23 01:42:57;;;;;;;12.82;5.30;;;;;;;4.24;90.11;102104.16;5034632;28;20034;-71
2021/03/23 01:45:40;;;;;;;16.45;5.55;;;;;;;4.20;90.49;102103.69;5038978;28;20509;-71
2021/03/23 01:48:16;;;;;;;10.07;4.65;;;;;;;4.21;90.86;102107.16;5029381;28;20090;-71
2021/03/23 01:50:44;;;;;;;13.63;5.22;;;;;;;4.13;91.18;102102.75;5034494;28;20033;-71
2021/03/23 01:53:19;;;;;;;14.23;5.70;;;;;;;4.16;91.29;102106.88;5032200;28;20083;-71
2021/03/23 01:55:45;;;;;;;11.63;5.45;;;;;;;4.10;91.87;102107.53;5038729;28;20032;-71
2021/03/23 01:58:11;;;;;;;15.90;6.47;;;;;;;4.16;91.39;102104.22;5028139;28;20029;-71
2021/03/23 02:00:38;;;;;;;14.00;5.88;;;;;;;4.20;91.75;102100.22;5034373;28;20507;-71
2021/03/23 02:03:04;;;;;;;14.75;6.47;;;;;;;4.15;91.86;102106.03;5039083;28;20074;-71
2021/03/23 02:05:31;;;;;;;12.98;6.90;;;;;;;4.12;92.45;102105.53;5033189;28;20036;-71
2021/03/23 02:07:59;;;;;;;16.88;7.80;;;;;;;4.05;93.04;102105.41;5033832;28;20021;-71
2021/03/23 02:10:25;;;;;;;13.40;6.68;;;;;;;4.07;92.99;102103.41;5032456;28;20848;-71
2021/03/23 02:12:53;;;;;;;15.25;6.70;;;;;;;4.14;92.77;102108.88;5028181;28;20079;-71
2021/03/23 02:15:23;;;;;;;12.85;6.50;;;;;;;4.16;92.72;102110.34;5031482;28;20079;-71
2021/03/23 02:18:12;;;;;;;15.30;7.72;;;;;;;4.11;92.78;102104.72;5033271;28;20108;-71
2021/03/23 02:21:07;;;;;;;17.58;7.22;;;;;;;4.13;92.98;102104.53;5028768;28;20029;-71
2021/03/23 02:23:37;;;;;;;11.88;5.55;;;;;;;4.17;92.60;102104.03;5035429;28;20036;-71
2021/03/23 02:26:05;;;;;;;11.82;5.72;;;;;;;4.20;92.34;102105.50;5034891;28;20041;-71
2021/03/23 02:28:39;;;;;;;12.32;6.40;;;;;;;4.20;92.22;102109.00;5035476;28;20104;-71
2021/03/23 02:31:04;;;;;;;12.88;6.90;;;;;;;4.22;92.17;102103.50;5035907;28;20025;-71
2021/03/23 02:33:30;;;;;;;17.15;6.82;;;;;;;4.12;92.76;102106.34;5038955;28;20036;-70
2021/03/23 02:35:55;;;;;;;11.18;6.25;;;;;;;4.14;93.06;102100.91;5033251;28;20033;-71
2021/03/23 02:38:21;;;;;;;9.93;5.85;;;;;;;4.12;93.14;102108.19;5034651;28;20029;-71
2021/03/23 02:40:48;;;;;;;22.27;6.72;;;;;;;4.07;92.90;102107.88;5035665;28;20132;-71
2021/03/23 02:43:14;;;;;;;11.85;5.72;;;;;;;4.15;92.89;102098.09;5038159;28;20040;-71
2021/03/23 02:45:49;;;;;;;13.45;5.68;;;;;;;4.08;92.91;102106.88;5039056;28;20045;-71
2021/03/23 02:48:15;;;;;;;12.88;6.18;;;;;;;4.05;93.20;102116.00;5037752;28;20021;-71
2021/03/23 02:50:40;;;;;;;15.85;5.82;;;;;;;4.13;92.50;102113.34;5037171;28;20070;-71
2021/03/23 02:53:06;;;;;;;10.50;5.93;;;;;;;4.16;92.31;102110.34;5035913;28;20029;-71
2021/03/23 02:55:31;;;;;;;15.68;5.90;;;;;;;4.15;92.35;102107.88;5038862;28;20026;-71
2021/03/23 02:57:57;;;;;;;14.57;5.15;;;;;;;4.16;92.28;102101.56;5038656;28;20025;-71
2021/03/23 03:00:23;;;;;;;11.93;5.45;;;;;;;4.24;91.53;102106.81;5037914;28;20452;-71
2021/03/23 03:02:49;;;;;;;11.27;5.60;;;;;;;4.20;91.72;102109.00;5034419;28;20025;-71
2021/03/23 03:05:14;;;;;;;10.32;5.10;;;;;;;4.28;91.51;102105.47;5040787;28;20497;-71
2021/03/23 03:07:40;;;;;;;10.23;5.25;;;;;;;4.27;91.03;102103.81;5037148;28;20033;-71
2021/03/23 03:10:06;;;;;;;10.40;4.78;;;;;;;4.35;90.58;102101.13;5033269;28;20029;-71
2021/03/23 03:12:32;;;;;;;11.85;4.40;;;;;;;4.31;90.65;102107.78;5042627;28;20956;-71
2021/03/23 03:14:58;;;;;;;7.80;4.43;;;;;;;4.30;90.83;102105.28;5032732;28;20033;-71
2021/03/23 03:17:23;;;;;;;9.38;4.85;;;;;;;4.28;90.73;102105.47;5036879;28;20070;-71
2021/03/23 03:19:49;;;;;;;14.57;5.13;;;;;;;4.31;89.93;102105.13;5037080;28;20231;-71
2021/03/23 03:22:15;;;;;;;6.43;4.28;;;;;;;4.38;89.80;102107.91;5041297;28;20032;-71
2021/03/23 03:24:40;;;;;;;8.32;4.97;;;;;;;4.34;89.86;102117.22;5032228;28;20140;-71
2021/03/23 03:27:06;;;;;;;7.85;3.83;;;;;;;4.28;89.90;102112.59;5033450;28;20028;-71
2021/03/23 03:29:32;;;;;;;7.38;4.60;;;;;;;4.35;89.69;102105.63;5038274;28;20025;-71
2021/03/23 03:31:57;;;;;;;11.00;3.90;;;;;;;4.33;89.58;102118.22;5031988;28;20395;-71
2021/03/23 03:34:22;;;;;;;12.30;5.40;;;;;;;4.30;89.38;102116.72;5033134;28;20083;-71
2021/03/23 03:36:48;;;;;;;5.40;3.88;;;;;;;4.26;89.47;102120.72;5033907;28;20051;-71
2021/03/23 03:39:13;;;;;;;6.85;3.78;;;;;;;4.34;88.93;102125.19;5042444;28;20039;-71
2021/03/23 03:41:39;;;;;;;7.20;4.15;;;;;;;4.35;88.45;102127.66;5033459;28;20383;-71
2021/03/23 03:44:06;;;;;;;5.25;3.50;;;;;;;4.34;88.93;102131.31;5027350;28;20053;-71
2021/03/23 03:46:31;;;;;;;9.18;3.50;;;;;;;4.39;87.98;102134.28;5038089;28;20100;-71
2021/03/23 03:48:57;;;;;;;7.55;3.53;;;;;;;4.39;87.79;102128.13;5040411;28;20160;-71
2021/03/23 03:51:22;;;;;;;6.93;3.55;;;;;;;4.50;86.91;102131.25;5039315;28;20032;-71
2021/03/23 03:53:48;;;;;;;7.32;4.10;;;;;;;4.45;86.88;102138.88;5035039;28;20033;-71
2021/03/23 03:56:14;;;;;;;7.05;3.85;;;;;;;4.43;86.86;102140.88;5034331;28;20032;-71
2021/03/23 03:58:39;;;;;;;6.03;3.38;;;;;;;4.42;87.10;102138.41;5032196;28;20025;-71
2021/03/23 04:01:05;;;;;;;7.55;3.40;;;;;;;4.41;86.62;102139.41;5034516;28;20464;-71
2021/03/23 04:03:31;;;;;;;9.35;3.58;;;;;;;4.39;86.42;102139.59;5034712;28;20055;-71
2021/03/23 04:05:58;;;;;;;6.20;3.85;;;;;;;4.41;86.47;102137.56;5037373;28;20039;-71
2021/03/23 04:08:29;;;;;;;7.70;3.28;;;;;;;4.47;85.91;102126.25;5035650;28;20075;-71
2021/03/23 04:10:57;;;;;;;5.80;3.47;;;;;;;4.46;85.82;102137.88;5033773;28;20495;-71
2021/03/23 04:13:24;;;;;;;4.95;3.03;;;;;;;4.48;85.43;102133.22;5040621;28;20522;-71
2021/03/23 04:15:51;;;;;;;4.20;3.38;;;;;;;4.38;85.78;102134.44;5034561;28;20025;-71
2021/03/23 04:18:21;;;;;;;7.78;3.20;;;;;;;4.40;85.93;102135.09;5031896;28;20024;-71
2021/03/23 04:20:48;;;;;;;4.00;2.88;;;;;;;4.41;85.59;102134.94;5039565;28;20531;-71
2021/03/23 04:23:39;;;;;;;3.85;2.88;;;;;;;4.45;84.95;102141.53;5036410;28;20034;-71
2021/03/23 04:26:07;;;;;;;6.75;3.00;;;;;;;4.48;84.71;102149.13;5033399;28;20049;-71
2021/03/23 04:28:33;;;;;;;5.45;3.47;;;;;;;4.41;85.07;102142.88;5035639;28;20047;-71
2021/03/23 04:30:58;;;;;;;10.43;3.08;;;;;;;4.43;84.80;102150.66;5035638;28;20018;-71
2021/03/23 04:33:26;;;;;;;6.32;2.80;;;;;;;4.38;84.92;102153.84;5036460;28;20083;-71
2021/03/23 04:35:59;;;;;;;5.05;3.05;;;;;;;4.37;84.10;102157.50;5034462;28;20033;-71
2021/03/23 04:38:30;;;;;;;4.03;2.70;;;;;;;4.43;84.40;102156.81;5036886;28;20021;-71
2021/03/23 04:40:57;;;;;;;5.53;2.65;;;;;;;4.53;83.47;102160.09;5035655;28;20067;-71
2021/03/23 04:43:25;;;;;;;4.07;2.42;;;;;;;4.41;84.22;102160.63;5032168;28;20534;-71
2021/03/23 04:45:51;;;;;;;9.65;2.95;;;;;;;4.52;83.37;102155.78;5032247;28;20029;-71
2021/03/23 04:48:17;;;;;;;6.05;3.10;;;;;;;4.40;83.68;102156.34;5034944;28;20083;-71
2021/03/23 04:50:42;;;;;;;6.20;2.45;;;;;;;4.47;83.32;102158.09;5037796;28;20059;-71
2021/03/23 04:53:20;;;;;;;9.70;3.05;;;;;;;4.41;83.54;102164.13;5036910;28;20075;-71
2021/03/23 04:55:47;;;;;;;4.30;2.80;;;;;;;4.47;83.17;102173.22;5050148;28;20135;-71
2021/03/23 04:58:13;;;;;;;4.68;2.42;;;;;;;4.52;82.52;102166.41;5030719;28;20128;-71
2021/03/23 05:00:39;;;;;;;4.32;2.60;;;;;;;4.44;82.84;102171.72;5035140;28;20102;-71
2021/03/23 05:03:04;;;;;;;4.85;2.42;;;;;;;4.44;82.90;102171.72;5031422;28;20472;-71
2021/03/23 05:05:30;;;;;;;7.97;2.97;;;;;;;4.41;83.12;102169.44;5031090;28;20029;-71
2021/03/23 05:07:55;;;;;;;7.60;2.83;;;;;;;4.47;82.93;102174.03;5036831;28;20526;-71
2021/03/23 05:10:21;;;;;;;5.22;2.25;;;;;;;4.47;82.70;102175.84;5032168;28;20369;-71
2021/03/23 05:12:46;;;;;;;6.53;2.75;;;;;;;4.43;82.93;102180.69;5030969;28;20124;-71
2021/03/23 05:15:12;;;;;;;9.23;2.65;;;;;;;4.42;82.70;102175.56;5032569;28;20075;-71
2021/03/23 05:17:38;;;;;;;4.50;2.45;;;;;;;4.38;83.31;102185.69;5035951;28;20167;-71
2021/03/23 05:20:06;;;;;;;4.28;2.25;;;;;;;4.44;82.73;102179.69;5036156;28;20685;-71
2021/03/23 05:22:33;;;;;;;3.42;2.20;;;;;;;4.43;82.83;102191.31;5034536;28;20052;-71
2021/03/23 05:24:58;;;;;;;4.05;2.08;;;;;;;4.47;82.48;102197.91;5035608;28;20437;-71
2021/03/23 05:27:23;;;;;;;4.47;2.70;;;;;;;4.45;82.54;102197.25;5033531;28;20108;-71
2021/03/23 05:29:49;;;;;;;3.85;2.50;;;;;;;4.41;82.89;102201.28;5036777;28;20025;-71
2021/03/23 05:32:15;;;;;;;4.57;1.77;;;;;;;4.53;81.72;102199.91;5033132;28;20492;-71
2021/03/23 05:34:40;;;;;;;4.45;2.00;;;;;;;4.49;82.17;102203.09;5037239;28;20118;-72
2021/03/23 05:37:06;;;;;;;5.70;2.40;;;;;;;4.51;81.79;102196.59;5031848;28;20456;-71
2021/03/23 05:39:31;;;;;;;8.15;2.00;;;;;;;4.41;82.40;102200.44;5039497;28;20127;-71
2021/03/23 05:42:08;;;;;;;3.30;2.10;;;;;;;4.47;81.96;102205.06;5033547;28;20602;-71
2021/03/23 05:44:53;;;;;;;6.40;2.80;;;;;;;4.48;81.86;102209.34;5032877;28;20033;-71
2021/03/23 05:47:25;;;;;;;4.82;2.55;;;;;;;4.32;82.81;102206.78;5031079;28;20075;-71
2021/03/23 05:50:05;;;;;;;4.13;2.33;;;;;;;4.37;82.46;102213.22;5031441;28;20041;-71
2021/03/23 05:52:49;;;;;;;4.50;2.10;;;;;;;4.38;82.63;102216.72;5035334;28;20033;-71
2021/03/23 05:55:18;;;;;;;8.70;2.08;;;;;;;4.45;82.03;102213.19;5035048;28;20021;-71
2021/03/23 05:57:48;;;;;;;3.83;2.15;;;;;;;4.45;82.20;102217.66;5031212;28;20029;-71
2021/03/23 06:00:24;;;;;;;4.28;2.20;;;;;;;4.54;81.43;102212.19;5033331;28;20032;-71
2021/03/23 06:03:18;;;;;;;3.83;1.90;;;;;;;4.51;81.63;102214.34;5032853;28;20051;-71
2021/03/23 06:05:53;;;;;;;6.15;2.10;;;;;;;4.43;81.71;102215.19;5039837;28;20534;-71
2021/03/23 06:08:28;;;;;;;3.33;1.63;;;;;;;4.52;81.36;102219.47;5039205;28;20031;-71
2021/03/23 06:11:13;;;;;;;;;;;;;;;4.47;81.72;102216.50;5039141;28;20373;-71
2021/03/23 06:13:46;;;;;;;5.55;1.52;;;;;;;4.45;81.89;102218.50;5036822;28;19921;-71
2021/03/23 06:16:18;;;;;;;4.47;1.92;;;;;;;4.38;82.27;102217.53;5038209;28;20033;-72
2021/03/23 06:19:02;;;;;;;4.05;2.10;;;;;;;4.47;81.61;102227.13;5036632;28;20040;-71
2021/03/23 06:21:49;;;;;;;4.90;1.80;;;;;;;4.50;81.61;102237.41;5038819;28;20109;-71
2021/03/23 06:24:34;;;;;;;5.18;2.38;;;;;;;4.57;81.21;102236.72;5037531;28;20637;-71
2021/03/23 06:27:20;;;;;;;5.53;2.33;;;;;;;4.54;81.41;102240.53;5041688;28;20061;-71
2021/03/23 06:30:22;;;;;;;4.05;1.98;;;;;;;4.58;80.94;102241.03;5042106;28;20507;-71
2021/03/23 06:32:55;;;;;;;4.38;2.15;;;;;;;4.59;81.42;102242.69;5044974;28;20033;-71
2021/03/23 06:35:28;;;;;;;4.10;1.80;;;;;;;4.51;81.66;102240.91;5037696;28;20029;-72
2021/03/23 06:37:53;;;;;;;7.68;2.10;;;;;;;4.56;81.69;102243.84;5040687;28;20671;-72
2021/03/23 06:40:26;;;;;;;4.60;1.95;;;;;;;4.75;80.64;102242.63;5044484;28;20051;-72
2021/03/23 06:42:55;;;;;;;4.45;1.83;;;;;;;4.72;80.71;102242.97;5040778;28;20108;-72
2021/03/23 06:45:38;;;;;;;6.82;2.60;;;;;;;4.77;81.66;102248.56;5040438;28;20653;-72
2021/03/23 06:48:27;;;;;;;2.72;2.05;;;;;;;4.91;80.87;102250.50;5039403;28;20036;-72
2021/03/23 06:51:12;;;;;;;4.75;2.80;;;;;;;4.93;81.04;102253.81;5039617;28;20086;-72
2021/03/23 06:53:39;;;;;;;3.88;2.05;;;;;;;4.81;81.57;102250.69;5038367;28;20043;-72
2021/03/23 06:56:21;;;;;;;4.53;2.63;;;;;;;4.93;81.24;102245.84;5039677;28;20032;-72
2021/03/23 06:59:15;;;;;;;9.25;2.92;;;;;;;4.71;82.79;102257.25;5038243;28;20030;-72
2021/03/23 07:01:45;;;;;;;4.55;2.45;;;;;;;4.81;83.15;102252.53;5041628;28;20029;-74
2021/03/23 07:04:24;;;;;;;4.90;2.28;;;;;;;4.73;83.59;102245.44;5035517;28;21443;-72
2021/03/23 07:07:10;;;;;;;3.97;2.13;;;;;;;4.71;84.68;102251.94;5037842;28;20025;-72
2021/03/23 07:09:51;;;;;;;5.93;2.83;;;;;;;4.78;83.93;102260.84;5035767;28;20032;-72
2021/03/23 07:12:19;;;;;;;6.43;2.50;;;;;;;4.89;83.21;102255.16;5038130;28;20056;-72
2021/03/23 07:14:47;;;;;;;7.88;3.00;;;;;;;4.77;83.54;102257.38;5037844;28;20442;-73
2021/03/23 07:17:13;;;;;;;8.75;2.75;;;;;;;4.76;83.52;102257.53;5037043;28;20025;-73
2021/03/23 07:19:46;;;;;;;4.60;2.63;;;;;;;4.87;83.13;102262.47;5040693;28;20479;-73
2021/03/23 07:22:35;;;;;;;3.70;2.28;;;;;;;4.83;83.09;102258.50;5040153;28;20029;-73
2021/03/23 07:25:07;;;;;;;4.78;2.30;;;;;;;5.01;82.58;102261.72;5038815;28;20036;-73
2021/03/23 07:27:33;;;;;;;3.53;2.38;;;;;;;4.93;83.25;102268.91;5034019;28;20032;-72
2021/03/23 07:30:32;;;;;;;6.10;2.67;;;;;;;4.85;83.06;102272.44;5032764;28;20025;-72
2021/03/23 07:33:07;;;;;;;4.03;2.10;;;;;;;4.90;83.14;102270.09;5039922;28;20114;-73
2021/03/23 07:35:37;;;;;;;3.65;2.28;;;;;;;4.77;84.14;102283.09;5038115;28;20554;-73
2021/03/23 07:38:29;;;;;;;6.90;2.50;;;;;;;4.85;84.38;102285.72;5037105;28;20128;-73
2021/03/23 07:40:59;;;;;;;5.82;3.13;;;;;;;4.96;83.79;102285.31;5038437;28;20111;-73
2021/03/23 07:43:40;;;;;;;5.15;2.60;;;;;;;4.92;83.59;102284.03;5039171;28;20033;-72
2021/03/23 07:46:10;;;;;;;3.90;2.05;;;;;;;4.84;83.53;102292.84;5036191;28;20039;-69
2021/03/23 07:48:41;;;;;;;5.90;2.60;;;;;;;4.93;83.21;102291.00;5037283;28;20052;-75
2021/03/23 07:51:19;;;;;;;6.78;2.42;;;;;;;4.92;83.06;102293.81;5036667;28;20029;-72
2021/03/23 07:53:45;;;;;;;4.55;2.55;;;;;;;5.02;82.47;102299.72;5037810;28;20036;-72
2021/03/23 07:56:11;;;;;;;6.38;2.47;;;;;;;5.07;82.28;102295.56;5037386;28;20040;-71
2021/03/23 07:58:45;;;;;;;6.97;2.88;;;;;;;5.06;82.21;102304.56;5040834;28;20516;-71
2021/03/23 08:01:53;;;;;;;3.72;2.25;;;;;;;4.98;82.39;102309.88;5051055;28;20024;-71
2021/03/23 08:04:41;;;;;;;7.82;2.78;;;;;;;5.12;81.66;102301.19;5050050;28;20048;-71
2021/03/23 08:07:28;;;;;;;4.32;2.30;;;;;;;5.05;81.58;102307.38;5038321;28;20021;-71
2021/03/23 08:10:03;;;;;;;4.30;2.90;;;;;;;4.99;82.00;102313.38;5036886;28;20028;-72
2021/03/23 08:12:37;;;;;;;;;;;;;;;5.05;81.77;102315.34;5033129;28;20030;-72
2021/03/23 08:15:37;;;;;;;5.50;2.35;;;;;;;5.11;81.54;102312.81;5048397;28;19917;-71
2021/03/23 08:18:27;;;;;;;7.20;2.63;;;;;;;5.12;80.88;102317.13;5033810;28;20083;-72
2021/03/23 08:21:09;;;;;;;5.97;2.50;;;;;;;4.91;81.83;102308.94;5030198;28;20043;-71
2021/03/23 08:23:53;;;;;;;8.20;3.00;;;;;;;4.99;81.35;102321.34;5036998;28;20035;-71
2021/03/23 08:26:39;;;;;;;5.88;2.58;;;;;;;4.97;81.43;102316.19;5031430;28;20064;-71
2021/03/23 08:29:07;;;;;;;;;;;;;;;5.06;81.32;102331.13;5034099;28;20029;-71
2021/03/23 08:32:06;;;;;;;3.75;2.55;;;;;;;5.24;80.36;102330.03;5031717;28;19917;-71
2021/03/23 08:34:41;;;;;;;8.18;3.08;;;;;;;5.26;80.50;102339.50;5037221;28;20033;-72
2021/03/23 08:37:49;;;;;;;6.68;2.50;;;;;;;5.40;79.84;102333.44;5031850;28;20036;-72
2021/03/23 08:40:29;;;;;;;5.47;2.50;;;;;;;5.56;78.91;102339.63;5033242;28;20057;-70
2021/03/23 08:42:56;;;;;;;5.82;2.55;;;;;;;5.55;78.50;102344.13;5033378;28;20521;-71
2021/03/23 08:45:29;;;;;;;7.65;3.30;;;;;;;5.73;77.87;102346.50;5039729;28;20036;-71
2021/03/23 08:48:02;;;;;;;7.47;2.90;;;;;;;5.73;77.85;102347.31;5029336;28;20679;-71
2021/03/23 08:50:40;;;;;;;7.65;3.47;;;;;;;5.65;78.13;102352.72;5033025;28;20036;-71
2021/03/23 08:53:32;;;;;;;4.55;2.97;;;;;;;5.72;77.46;102353.66;5036056;28;20029;-71
2021/03/23 08:56:01;;;;;;;6.25;2.83;;;;;;;6.02;76.24;102345.81;5031584;28;20047;-72
2021/03/23 08:58:46;;;;;;;7.25;2.92;;;;;;;6.11;75.92;102349.25;5038534;28;20071;-73
2021/03/23 09:01:37;;;;;;;6.32;3.72;;;;;;;6.09;75.71;102346.75;5034953;28;20024;-73
2021/03/23 09:04:02;;;;;;;7.13;2.78;;;;;;;6.17;76.22;102356.50;5032527;28;20025;-73
2021/03/23 09:06:48;;;;;;;8.13;3.33;;;;;;;5.93;75.79;102357.56;5032871;28;20079;-72
2021/03/23 09:09:26;;;;;;;4.30;2.78;;;;;;;6.16;75.27;102353.03;5032811;28;20040;-72
2021/03/23 09:12:15;;;;;;;7.43;2.72;;;;;;;6.18;74.83;102366.97;5030795;28;20052;-71
2021/03/23 09:15:08;;;;;;;5.45;2.65;;;;;;;6.00;75.08;102369.94;5031728;28;20033;-72
2021/03/23 09:17:52;;;;;;;5.22;3.03;;;;;;;6.22;74.15;102376.25;5033442;28;20037;-72
2021/03/23 09:20:34;;;;;;;5.25;3.35;;;;;;;6.25;73.77;102370.56;5027156;28;20033;-72
2021/03/23 09:23:18;;;;;;;6.90;2.53;;;;;;;6.27;73.27;102367.72;5032374;28;20025;-72
2021/03/23 09:25:46;;;;;;;4.70;3.03;;;;;;;6.16;73.54;102369.00;5028750;28;20033;-72
2021/03/23 09:28:33;;;;;;;4.85;3.28;;;;;;;6.25;73.05;102373.22;5031963;28;20024;-72
2021/03/23 09:31:04;;;;;;;6.85;3.08;;;;;;;6.45;72.62;102372.72;5033922;28;20083;-72
2021/03/23 09:33:51;;;;;;;4.53;2.67;;;;;;;6.50;72.42;102375.69;5032459;28;20043;-71
2021/03/23 09:36:20;;;;;;;4.60;2.72;;;;;;;6.55;72.07;102375.97;5034593;28;20071;-71
2021/03/23 09:38:52;;;;;;;5.45;3.60;;;;;;;6.23;72.99;102374.41;5026017;28;20533;-73
2021/03/23 09:41:20;;;;;;;6.45;2.97;;;;;;;6.30;72.98;102370.88;5034907;28;20029;-73
2021/03/23 09:43:48;;;;;;;7.78;3.30;;;;;;;6.38;72.56;102375.28;5035272;28;20124;-73
2021/03/23 09:46:24;;;;;;;5.88;3.28;;;;;;;6.46;72.40;102367.22;5034003;28;20065;-72
2021/03/23 09:49:16;;;;;;;7.68;2.90;;;;;;;6.52;72.42;102371.00;5037253;28;20745;-73
2021/03/23 09:51:53;;;;;;;7.70;3.58;;;;;;;6.54;71.66;102372.47;5030042;28;20044;-73
2021/03/23 09:54:50;;;;;;;8.18;3.13;;;;;;;6.66;71.21;102365.69;5040465;28;20025;-73
2021/03/23 09:57:19;;;;;;;7.13;3.30;;;;;;;6.79;70.66;102359.72;5030373;28;20463;-72
2021/03/23 09:59:53;;;;;;;7.43;2.75;;;;;;;7.11;70.17;102373.69;5037750;28;20036;-72
2021/03/23 10:02:34;;;;;;;5.10;2.78;;;;;;;7.13;69.16;102368.97;5037310;28;20487;-72
2021/03/23 10:05:23;;;;;;;5.70;2.88;;;;;;;7.13;68.00;102369.81;5031525;28;20033;-72
2021/03/23 10:07:51;;;;;;;6.32;2.60;;;;;;;7.22;68.11;102367.88;5030656;28;20063;-72
2021/03/23 10:10:27;;;;;;;8.18;3.42;;;;;;;7.37;67.79;102365.19;5028947;28;20030;-72
2021/03/23 10:12:54;;;;;;;10.30;2.95;;;;;;;7.48;67.54;102364.69;5037231;28;20555;-72
2021/03/23 10:15:27;;;;;;;7.63;2.60;;;;;;;7.51;66.63;102369.66;5027269;28;20033;-72
2021/03/23 10:18:08;;;;;;;7.25;3.00;;;;;;;7.08;68.26;102376.72;5028206;28;20687;-72
2021/03/23 10:20:34;;;;;;;5.47;2.40;;;;;;;7.29;68.03;102376.78;5037905;28;20025;-72
2021/03/23 10:23:02;;;;;;;4.93;2.42;;;;;;;7.33;66.73;102367.38;5031434;28;20039;-72
2021/03/23 10:25:27;;;;;;;5.05;2.88;;;;;;;7.30;66.23;102377.59;5030006;28;20037;-73
2021/03/23 10:27:57;;;;;;;5.05;2.83;;;;;;;7.49;67.02;102385.00;5029624;28;20035;-72
2021/03/23 10:30:33;;;;;;;6.15;2.50;;;;;;;7.69;66.00;102375.38;5029234;28;20029;-72
2021/03/23 10:33:17;;;;;;;6.40;2.65;;;;;;;7.71;65.65;102380.53;5035502;28;20059;-73
2021/03/23 10:35:42;;;;;;;4.43;2.42;;;;;;;7.81;65.13;102381.88;5032670;28;20369;-73
2021/03/23 10:38:14;;;;;;;8.02;2.65;;;;;;;7.60;65.39;102381.88;5031401;28;20055;-72
2021/03/23 10:40:42;;;;;;;5.90;2.72;;;;;;;7.74;65.05;102374.84;5032003;28;20046;-73
2021/03/23 10:43:27;;;;;;;4.65;2.42;;;;;;;7.74;64.62;102377.50;5034614;28;20533;-73
2021/03/23 10:45:54;;;;;;;3.42;2.17;;;;;;;7.87;65.07;102378.44;5033566;28;20037;-73
2021/03/23 10:48:26;;;;;;;4.47;2.50;;;;;;;8.10;64.90;102386.28;5033937;28;20025;-73
2021/03/23 10:51:18;;;;;;;4.90;2.78;;;;;;;7.69;64.14;102383.38;5029752;28;20049;-73
2021/03/23 10:54:02;;;;;;;5.28;2.63;;;;;;;7.20;66.52;102383.25;5027676;28;20597;-72
2021/03/23 10:56:33;;;;;;;6.28;2.92;;;;;;;7.77;64.91;102377.13;5026712;28;20037;-73
2021/03/23 10:59:06;;;;;;;5.07;2.47;;;;;;;7.90;64.14;102385.28;5029501;28;20040;-73
2021/03/23 11:01:31;;;;;;;3.60;2.80;;;;;;;8.06;63.63;102387.66;5046172;28;20692;-73
2021/03/23 11:04:13;;;;;;;5.93;2.45;;;;;;;7.83;63.76;102387.03;5035988;28;20025;-73
2021/03/23 11:06:40;;;;;;;4.13;2.55;;;;;;;7.36;64.43;102388.38;5038391;28;20120;-73
2021/03/23 11:09:08;;;;;;;4.95;2.63;;;;;;;7.61;64.14;102374.69;5032522;28;20032;-73
2021/03/23 11:11:37;;;;;;;5.07;2.45;;;;;;;7.81;63.68;102386.41;5030396;28;20060;-73
2021/03/23 11:14:03;;;;;;;5.00;2.30;;;;;;;7.96;62.59;102386.34;5034556;28;20036;-72
2021/03/23 11:16:32;;;;;;;4.30;2.30;;;;;;;7.96;62.59;102379.16;5037542;28;20033;-73
2021/03/23 11:19:01;;;;;;;4.28;2.20;;;;;;;7.74;62.51;102373.00;5033825;28;20083;-72
2021/03/23 11:21:31;;;;;;;6.18;2.40;;;;;;;7.62;63.35;102376.34;5033567;28;20102;-73
2021/03/23 11:23:56;;;;;;;6.38;2.85;;;;;;;7.50;63.48;102381.31;5043263;28;20026;-73
2021/03/23 11:26:27;;;;;;;3.38;2.20;;;;;;;7.51;64.40;102381.13;5031520;28;20490;-73
2021/03/23 11:28:56;;;;;;;8.32;3.35;;;;;;;7.73;63.97;102381.19;5032353;28;20495;-73
2021/03/23 11:31:24;;;;;;;5.78;2.22;;;;;;;7.49;64.60;102372.50;5032815;28;20053;-73
2021/03/23 11:33:50;;;;;;;6.18;2.30;;;;;;;7.17;65.47;102378.25;5037037;28;20106;-73
2021/03/23 11:36:16;;;;;;;3.42;2.15;;;;;;;7.64;63.68;102376.97;5031672;28;20036;-73
2021/03/23 11:38:42;;;;;;;3.38;2.33;;;;;;;7.35;63.74;102378.69;5031887;28;20029;-73
2021/03/23 11:41:19;;;;;;;3.53;2.28;;;;;;;7.66;63.31;102378.44;5035621;28;20483;-73
2021/03/23 11:43:52;;;;;;;6.30;2.10;;;;;;;7.44;63.31;102374.91;5035873;28;20079;-73
2021/03/23 11:46:27;;;;;;;6.22;2.45;;;;;;;7.30;63.07;102375.75;5034577;28;20030;-73
2021/03/23 11:49:04;;;;;;;6.15;1.83;;;;;;;7.41;62.77;102374.47;5032621;28;20029;-72
2021/03/23 11:51:30;;;;;;;4.20;1.80;;;;;;;7.38;62.61;102375.66;5031955;28;20396;-73
2021/03/23 11:53:56;;;;;;;4.63;2.10;;;;;;;7.36;63.32;102377.69;5031915;28;20571;-73